Details From LFMN - Nice Cote D Azur
To LPFR - Faro
Flight Number -
Tags Generated
Created
Modified
Stats Distance 800 nm / 1,481 km
Max Altitude 0 ft / 0 m
Waypoints 5
Social Downloads 6
Likes 0
Share VATSIM

Download

Looking for another format? Having issues loading an existing format? Contact us
Advertisement - Login to hide

Notes

Generated

Route

LFMN VIBOK INTAX GENRO LPFR

ID Type Via Altitude Latitude Longitude Leg Dist Tot Dist Heading (true) Name
O LFMN APT - 0 ft / 0 m 43.64661˚ 7.20258˚ - 0 nm - -
VIBOK FIX - 0 ft / 0 m 41.54686˚ 1.50185˚ 281 nm 281 nm 245° / 242° -
INTAX FIX - 0 ft / 0 m 39.58722˚ -2.93389˚ 234 nm 515 nm 241° / 238° -
GENRO FIX - 0 ft / 0 m 37.19306˚ -7.61472˚ 263 nm 778 nm 238° / 235° -
O LPFR APT - 0 ft / 0 m 37.01729˚ -7.98609˚ 20 nm 799 nm 239° / 239° -

Altitude Profile

Advertisement - Login to hide

Weather


0- 5 10 15 20 25 30 35+ Temperature / ° C

Clouds and Precipitation
Forecast for 2018-05-22 12:00 UTC. Updated 5 hours ago

Ground ~20,000 ft ~40,000 ft Winds

LFMN

Details ICAO LFMN (NCE)
Name Nice/Cote d'Azur
Region France
Timezone Unknown (UTC+0.0)
Stats Elevation 12 ft / 4 m (AMSL)
Location 43.657981° 7.215362°
Runways 2
Magnetic Variation 2.065° E

METAR

LFMN 221600Z VRB02KT 9999 FEW026 BKN080 19/13 Q1014 NOSIG

Decode

TAF

TAF LFMN 221400Z 2215/2321 18006KT 9999 FEW018 BKN070 BECMG 2219/2221 36006KT BECMG 2304/2306 CAVOK BECMG 2307/2309 18008KT FEW030 SCT080 BECMG 2318/2320 34010KT CAVOK

Decode

Departure Runways

ID Width Length Bearing (true) Bearing (mag) Surface Threshold Offset Overrun Length
04L 148 ft / 45 m 8,427 ft / 2,569 m 44.85° 42.78° Asphalt 0 ft / 0 m 131 ft / 40 m
04R 148 ft / 45 m 9,720 ft / 2,963 m 44.60° 42.53° Asphalt 0 ft / 0 m 427 ft / 130 m
22L 148 ft / 45 m 9,720 ft / 2,963 m 224.62° 222.55° Asphalt 0 ft / 0 m 525 ft / 160 m
22R 148 ft / 45 m 8,427 ft / 2,569 m 224.87° 222.80° Asphalt 0 ft / 0 m 492 ft / 150 m

LPFR

Details ICAO LPFR (FAO)
Name Faro
Region Portugal
Timezone Europe/Lisbon (UTC+1.0)
Stats Elevation 24 ft / 7 m (AMSL)
Location 37.015336° -7.972327°
Runways 1
Magnetic Variation 1.884° W

METAR

LPFR 221600Z 23005KT 180V280 9999 FEW022 20/14 Q1014

Decode

TAF

TAF LPFR 221100Z 2212/2312 20007KT 9999 BKN030 BECMG 2212/2215 24010KT FEW035 BECMG 2218/2220 28007KT SCT025 BECMG 2222/2224 33005KT CAVOK BECMG 2309/2312 24008KT

Decode

Destination Runways

ID Width Length Bearing (true) Bearing (mag) Surface Threshold Offset Overrun Length
10 148 ft / 45 m 8,148 ft / 2,484 m 100.08° 101.96° Asphalt 148 ft / 45 m 0 ft / 0 m
28 148 ft / 45 m 8,148 ft / 2,484 m 280.10° 281.98° Asphalt 148 ft / 45 m 0 ft / 0 m

Approach Navaids

Runway Type Ident Frequency Range Bearing (true) Bearing (mag) Slope Elevation
28 Localiser IIF 109.50 MHz 18 nm / 33 km 280.16° 282.05° - 24 ft / 7 m (AMSL)
28 Glidescope IIF 109.50 MHz 10 nm / 19 km 280.09° 281.97° 3.00° 24 ft / 7 m (AMSL)
28 DME IIF 109.50 MHz 18 nm / 33 km - - - 24 ft / 7 m (AMSL)

Popular Alternatives